• Join FlightAware (Why Join?)
  • Login
  • US Flag 
09:25PM EDT


 

Airport Tracker/Info


-or-


 

Live Flight TrackerFlight Track Log ✈ DAL1118 ✈ 01-May-2013 ✈ KSLC - KBOS

Flight Track Log - Related Links

Times and Time Zones

All times are in EDT time to prevent confusion due to time zone crossing. See the DAL1118 flight status page for this flight to view local times or setup timezone preferences in your user account.

Time Position Orientation Groundspeed Altitude Reporting Facility
EDT Latitude Longitude Course Direction KTS MPH feet Rate Location/Type
07:21PM 40.8014 -111.9642 90° East 171 197 4,900  Level Salt Lake Center
07:22PM 40.8211 -111.9633 North 170 196 5,700 1,500 Climbing Salt Lake Center
07:23PM 40.8828 -111.9733 353° North 232 267 7,100 2,460 Climbing Salt Lake Center
07:24PM 40.9633 -111.9836 354° North 245 282 10,800 2,700 Climbing Salt Lake Center
07:25PM 41.1090 -111.7512 124° Southeast  Level FlightAware Approximate
07:25PM 41.0011 -111.9106 56° Northeast 275 316 13,200  Level Salt Lake Center
07:26PM 41.0230 -111.6255 133° Southeast  Level FlightAware Approximate
07:26PM 41.0108 -111.8089 83° East 299 344 14,700  Level Salt Lake Center
07:27PM 41.0334 -111.4614 90° East  Level FlightAware Approximate
07:27PM 41.0219 -111.6839 83° East 352 405 15,700  Level Salt Lake Center
07:28PM 41.0531 -111.5192 76° East 388 447 17,900 1,740 Climbing Salt Lake Center
07:29PM 41.0844 -111.3786 73° East 399 459 19,300 1,560 Climbing Salt Lake Center
07:30PM 41.1164 -111.2347 74° East 408 470 21,100 1,560 Climbing Salt Lake Center
07:31PM 41.1497 -111.0861 73° East 421 484 22,600 1,440 Climbing Salt Lake Center
07:32PM 41.1844 -110.9275 74° East 426 490 24,100 1,380 Climbing Salt Lake Center
07:33PM 41.2233 -110.7542 73° East 437 503 25,500 1,260 Climbing Salt Lake Center
07:34PM 41.2569 -110.6022 74° East 445 512 26,700 1,020 Climbing Salt Lake Center
07:35PM 41.2897 -110.4494 74° East 450 518 27,700 960 Climbing Salt Lake Center
07:36PM 41.3283 -110.2683 74° East 455 524 28,700 960 Climbing Salt Lake Center
07:37PM 41.3619 -110.1106 74° East 462 532 29,700 900 Climbing Salt Lake Center
07:38PM 41.4014 -109.9267 74° East 463 533 30,600 960 Climbing Salt Lake Center
07:39PM 41.4439 -109.7739 70° East 460 529 31,800 1,260 Climbing Salt Lake Center
07:41PM 41.4925 -109.6014 69° East 445 512 33,300 1,020 Climbing Salt Lake Center
07:42PM 41.5347 -109.4531 69° East 445 512 33,900 480 Climbing Salt Lake Center
07:43PM 41.5769 -109.3014 70° East 450 518 34,300 300 Climbing Salt Lake Center
07:44PM 41.6272 -109.1200 70° East 457 526 34,600 300 Climbing Salt Lake Center
07:45PM 41.6697 -108.9619 70° East 465 535 35,000 180 Climbing Salt Lake Center
07:46PM 41.7131 -108.8039 70° East 469 540 35,000  Level Salt Lake Center
07:47PM 41.7633 -108.6178 70° East 474 545 35,000  Level Salt Lake Center
07:48PM 41.8069 -108.4572 70° East 478 550 35,000  Level Salt Lake Center
07:49PM 41.8567 -108.2689 70° East 479 551 35,000  Level Salt Lake Center
07:50PM 41.9000 -108.1100 70° East 477 549 35,000  Level Salt Lake Center
07:51PM 41.9422 -107.9469 71° East 482 555 35,000  Level Salt Lake Center
07:52PM 41.9903 -107.7592 71° East 478 550 35,000  Level Salt Lake Center
07:53PM 42.0322 -107.5989 71° East 475 547 35,000  Level Salt Lake Center
07:54PM 42.0686 -107.4636 70° East 478 550 35,000  Level Denver Center
07:55PM 42.1097 -107.3008 71° East 481 554 35,000  Level Denver Center
07:56PM 42.1592 -107.1097 71° East 484 557 35,000  Level Denver Center
07:57PM 42.2136 -106.8897 71° East 485 558 35,000  Level Denver Center
07:58PM 42.2556 -106.7256 71° East 485 558 35,000  Level Denver Center
07:59PM 42.3025 -106.5314 72° East 487 560 35,000  Level Denver Center
08:00PM 42.3428 -106.3706 71° East 492 566 35,000  Level Denver Center
08:01PM 42.3906 -106.1747 72° East 492 566 35,000  Level Denver Center
08:02PM 42.4458 -105.9522 71° East 491 565 35,000  Level Denver Center
08:03PM 42.4856 -105.7833 72° East 491 565 35,000  Level Denver Center
08:04PM 42.5319 -105.5853 72° East 493 567 35,000  Level Denver Center
08:05PM 42.5731 -105.4139 72° East 495 570 35,000  Level Denver Center
08:06PM 42.6200 -105.2164 72° East 492 566 35,000  Level Denver Center
08:07PM 42.6600 -105.0447 72° East 495 570 35,000  Level Denver Center
08:09PM 42.7003 -104.8728 72° East 496 571 35,000  Level Denver Center
08:10PM 42.7461 -104.6697 73° East 495 570 35,000  Level Denver Center
08:11PM 42.7856 -104.4944 73° East 497 572 35,000  Level Denver Center
08:12PM 42.8250 -104.3197 73° East 499 574 35,000  Level Denver Center
08:13PM 42.8708 -104.1156 73° East 502 578 35,000  Level Denver Center
08:14PM 42.9086 -103.9417 73° East 500 575 35,000  Level Denver Center
08:15PM 42.9539 -103.7394 73° East 500 575 35,000  Level Denver Center
08:16PM 42.9925 -103.5639 73° East 503 579 35,000  Level Denver Center
08:17PM 43.0361 -103.3592 74° East 502 578 35,000  Level Denver Center
08:18PM 43.0739 -103.1825 74° East 505 581 35,000  Level Denver Center
08:19PM 43.1178 -102.9761 74° East 507 583 35,000  Level Denver Center
08:20PM 43.1544 -102.7989 74° East 506 582 35,000  Level Denver Center
08:21PM 43.1972 -102.5892 74° East 513 590 35,000  Level Denver Center
08:22PM 43.2344 -102.4106 74° East 511 588 35,000  Level Denver Center
08:23PM 43.2722 -102.2281 74° East 518 596 35,000  Level Denver Center
08:25PM 43.3159 -102.0074 75° East  Level FlightAware Approximate
08:25PM 43.3489 -101.8453 75° East 519 597 35,000  Level Denver Center
08:26PM 43.3942 -101.6147 75° East 523 602 35,000  Level Denver Center
08:27PM 43.4319 -101.4239 75° East 518 596 35,000  Level Denver Center
08:28PM 43.4689 -101.2336 75° East 519 597 35,000  Level Denver Center
08:29PM 43.5050 -101.0425 75° East 517 595 35,000  Level Denver Center
08:30PM 43.5417 -100.8506 75° East 518 596 35,000  Level Denver Center
08:31PM 43.5864 -100.6192 75° East 523 602 35,000  Level Minneapolis Center
08:32PM 43.6300 -100.3858 75° East 525 604 35,000  Level Minneapolis Center
08:33PM 43.6653 -100.1903 76° East 527 606 35,000  Level Minneapolis Center
08:35PM 43.6997 -99.9983 76° East 523 602 35,000  Level Minneapolis Center
08:36PM 43.7344 -99.8100 76° East 515 593 35,000  Level Minneapolis Center
08:37PM 43.7669 -99.6203 77° East 511 588 35,000  Level Minneapolis Center
08:38PM 43.8086 -99.3911 76° East 512 589 35,000  Level Minneapolis Center
08:39PM 43.8481 -99.1611 77° East 515 593 35,000  Level Minneapolis Center
08:40PM 43.8800 -98.9722 77° East 509 586 35,000  Level Minneapolis Center
08:41PM 43.9125 -98.7822 77° East 509 586 35,000  Level Minneapolis Center
08:42PM 43.9458 -98.5853 77° East 510 587 35,000  Level Minneapolis Center
08:43PM 43.9783 -98.3947 77° East 510 587 35,000  Level Minneapolis Center
08:44PM 44.0083 -98.2039 78° East 508 585 35,000  Level Minneapolis Center
08:45PM 44.0456 -97.9761 77° East 505 581 35,000  Level Minneapolis Center
08:46PM 44.0764 -97.7858 77° East 506 582 35,000  Level Minneapolis Center
08:47PM 44.1072 -97.5922 77° East 512 589 35,000  Level Minneapolis Center
08:48PM 44.1322 -97.4375 77° East 513 590 35,000  Level Minneapolis Center
08:49PM 44.1672 -97.2039 78° East 515 593 35,000  Level Minneapolis Center
08:50PM 44.1972 -97.0097 78° East 515 593 35,000  Level Minneapolis Center
08:51PM 44.2383 -96.7367 78° East 514 592 35,000  Level Minneapolis Center
08:52PM 44.2675 -96.5411 78° East 514 592 35,000  Level Minneapolis Center
08:54PM 44.2969 -96.3456 78° East 511 588 35,000  Level Minneapolis Center
08:55PM 44.3272 -96.1439 78° East 516 594 35,000  Level Minneapolis Center
08:56PM 44.3544 -95.9483 79° East 507 583 35,000  Level Minneapolis Center
08:57PM 44.3825 -95.7517 79° East 512 589 35,000  Level Minneapolis Center
08:58PM 44.4094 -95.5572 79° East 511 588 35,000  Level Minneapolis Center
08:59PM 44.4397 -95.3314 79° East 496 571 35,000  Level Minneapolis Center
09:00PM 44.4644 -95.1417 80° East 496 571 35,000  Level Minneapolis Center
09:01PM 44.4758 -94.9569 85° East 481 554 35,000  Level Minneapolis Center
09:02PM 44.4833 -94.7742 87° East 473 544 35,000  Level Minneapolis Center
09:03PM 44.4892 -94.5717 88° East 475 547 35,000  Level Minneapolis Center
09:04PM 44.4953 -94.3900 87° East 470 541 35,000 -60 Level Minneapolis Center
09:05PM 44.5017 -94.2094 87° East 467 537 34,900  Descending Minneapolis Center
09:06PM 44.5100 -94.0283 86° East 468 539 35,000  Climbing Minneapolis Center
09:07PM 44.5161 -93.8456 87° East 472 543 35,000  Level Minneapolis Center
09:08PM 44.5222 -93.6281 88° East 471 542 35,000  Level Minneapolis Center
09:09PM 44.5264 -93.4464 88° East 473 544 35,000  Level Minneapolis Center
09:10PM 44.5317 -93.2656 88° East 474 545 35,000  Level Minneapolis Center
09:11PM 44.5361 -93.0850 88° East 475 547 35,000  Level Minneapolis Center
09:12PM 44.5442 -92.8686 87° East 473 544 35,000  Level Minneapolis Center
09:13PM 44.5492 -92.6889 88° East 469 540 35,000  Level Minneapolis Center
09:14PM 44.5553 -92.4725 88° East 468 539 35,000  Level Minneapolis Center
09:15PM 44.5603 -92.2919 88° East 468 539 35,000  Level Minneapolis Center
09:17PM 44.5642 -92.1469 88° East 468 539 35,000  Level Minneapolis Center
09:18PM 44.5697 -91.8917 88° East 471 542 35,000  Level Minneapolis Center
09:19PM 44.5747 -91.7108 88° East 468 539 35,000  Level Minneapolis Center
09:20PM 44.5783 -91.5325 88° East 463 533 35,000  Level Minneapolis Center
09:21PM 44.5822 -91.3511 88° East 466 536 35,000  Level Minneapolis Center
09:22PM 44.5850 -91.1742 89° East 460 529 35,000  Level Minneapolis Center
09:23PM 44.5886 -90.9942 88° East 462 532 35,000  Level Minneapolis Center
09:24PM 44.5908 -90.7803 89° East 460 529 35,000  Level Minneapolis Center
09:25PM 44.5922 -90.6006 89° East 464 534 35,000  Level Minneapolis Center
09:26PM 44.5953 -90.4161 89° East 467 537 35,100  Climbing Minneapolis Center
09:27PM 44.5975 -90.2378 89° East 460 529 35,000 -60 Descending Minneapolis Center
09:28PM 44.5983 -90.0597 90° East 458 527 35,000  Level Minneapolis Center
09:29PM 44.6000 -89.8819 89° East 456 525 35,000  Level Minneapolis Center
09:30PM 44.5992 -89.6464 90° East 454 522 35,000  Level Minneapolis Center
09:31PM 44.5997 -89.4686 90° East 455 524 35,000  Level Minneapolis Center
09:32PM 44.6006 -89.2897 90° East 457 526 35,000  Level Minneapolis Center
09:33PM 44.6014 -89.1078 90° East 461 531 35,000  Level Minneapolis Center
09:34PM 44.6006 -88.9269 90° East 462 532 35,000  Level Minneapolis Center
09:35PM 44.6006 -88.7481 90° East 460 529 35,000  Level Minneapolis Center
09:36PM 44.5997 -88.5425 90° East 455 524 35,000  Level Minneapolis Center
09:37PM 44.5975 -88.3664 91° East 451 519 35,000  Level Minneapolis Center
09:38PM 44.5961 -88.1942 91° East 446 513 35,000  Level Minneapolis Center
09:39PM 44.5942 -88.0214 91° East 443 510 35,000 -60 Level Minneapolis Center
09:40PM 44.5922 -87.8778 91° East 437 503 34,900 -60 Descending Minneapolis Center
09:41PM 44.5889 -87.6731 91° East 439 505 34,900  Level Minneapolis Center
09:42PM 44.5853 -87.5017 92° East 441 507 34,900  Level Minneapolis Center
09:43PM 44.5831 -87.3278 91° East 446 513 35,000  Climbing Minneapolis Center
09:44PM 44.5800 -87.1497 91° East 456 525 35,000  Level Minneapolis Center
09:46PM 44.5756 -86.9342 92° East 462 532 35,100 300 Climbing Minneapolis Center
09:47PM 44.5717 -86.7542 92° East 465 535 35,700 720 Climbing Minneapolis Center
09:48PM 44.5672 -86.5383 92° East 465 535 36,600 540 Climbing Minneapolis Center
09:49PM 44.5633 -86.3622 92° East 459 528 36,900 120 Climbing Minneapolis Center
09:50PM 44.5586 -86.1883 92° East 454 522 36,900  Level Minneapolis Center
09:51PM 44.5533 -86.0136 92° East 456 525 36,900  Level Minneapolis Center
09:53PM 44.5167 -85.6500 98° East 460 529 37,000  Climbing Toronto Center
09:53PM 44.5425 -85.6633 340° North 456 525 36,900  Descending Minneapolis Center
09:54PM 44.5350 -85.4172 92° East 455 524 37,000  Climbing Minneapolis Center
09:55PM 44.5292 -85.2411 93° East 455 524 37,000  Level Minneapolis Center
09:56PM 44.5233 -85.0650 93° East 454 522 37,000  Level Minneapolis Center
09:57PM 44.5172 -84.8897 93° East 453 521 37,000  Level Minneapolis Center
09:58PM 44.5100 -84.7161 93° East 451 519 37,000 -60 Level Minneapolis Center
09:59PM 44.5039 -84.5414 93° East 450 518 36,900 -60 Descending Minneapolis Center
10:00PM 44.4958 -84.3664 94° East 451 519 36,900  Level Minneapolis Center
10:01PM 44.4881 -84.1922 94° East 449 517 37,000  Climbing Minneapolis Center
10:02PM 44.4822 -84.0197 93° East 447 514 37,000 -60 Level Minneapolis Center
10:03PM 44.4722 -83.8147 94° East 443 510 36,900 -60 Descending Minneapolis Center
10:04PM 44.4642 -83.6436 94° East 442 509 36,900  Level Minneapolis Center
10:05PM 44.4550 -83.4717 94° East 443 510 36,900  Level Minneapolis Center
10:06PM 44.4278 -83.3058 103° East 440 506 37,000  Climbing Minneapolis Center
10:08PM 44.3756 -83.1503 115° Southeast 439 505 37,000  Level Minneapolis Center
10:09PM 44.3172 -82.9622 113° Southeast 440 506 37,000  Level Minneapolis Center
10:10PM 44.2578 -82.7747 114° Southeast 440 506 37,000  Level Minneapolis Center
10:11PM 44.2000 -82.5833 113° Southeast 440 506 37,000  Level Toronto Center
10:12PM 44.1833 -82.4167 98° East 440 506 37,000  Level Toronto Center
10:13PM 44.1500 -82.2333 104° East 450 518 37,000  Level Toronto Center
10:14PM 44.1333 -82.0667 98° East 450 518 37,000  Level Toronto Center
10:15PM 44.1167 -81.9167 99° East 450 518 37,000  Level Toronto Center
10:16PM 44.1000 -81.7500 98° East 450 518 37,000  Level Toronto Center
10:17PM 44.0667 -81.5833 106° East 440 506 37,000  Level Toronto Center
10:18PM 44.0500 -81.4000 97° East 440 506 37,000  Level Toronto Center
10:19PM 44.0167 -81.2333 105° East 440 506 37,000  Level Toronto Center
10:20PM 44.0000 -81.0667 98° East 440 506 37,000  Level Toronto Center
10:21PM 43.9667 -80.9000 105° East 440 506 37,000  Level Toronto Center
10:22PM 43.9667 -80.7167 90° East 450 518 37,000  Level Toronto Center
10:23PM 43.9333 -80.5667 107° East 450 518 37,000  Level Toronto Center
10:24PM 43.9167 -80.4000 98° East 450 518 37,000  Level Toronto Center
10:25PM 43.8833 -80.2333 105° East 450 518 37,000  Level Toronto Center
10:26PM 43.8667 -80.0667 98° East 440 506 37,000  Level Toronto Center
10:27PM 43.8333 -79.8833 104° East 440 506 37,000  Level Toronto Center
10:28PM 43.8167 -79.7333 99° East 450 518 37,000  Level Toronto Center
10:29PM 43.7833 -79.5667 105° East 450 518 37,000  Level Toronto Center
10:30PM 43.7500 -79.3833 104° East 450 518 37,000  Level Toronto Center
10:31PM 43.7333 -79.2167 98° East 440 506 37,000  Level Toronto Center
10:32PM 43.7000 -79.0500 105° East 450 518 37,000  Level Toronto Center
10:33PM 43.6833 -78.8667 97° East 450 518 37,000  Level Toronto Center
10:34PM 43.6500 -78.7167 107° East 450 518 37,000  Level Toronto Center
10:35PM 43.6333 -78.5333 97° East 450 518 37,000  Level Toronto Center
10:35PM 43.6158 -78.4444 105° East 446 513 37,000  Level Cleveland Center
10:36PM 43.5897 -78.2761 102° East 446 513 37,000  Level Cleveland Center
10:37PM 43.5617 -78.1281 105° East 446 513 37,000  Level Cleveland Center
10:38PM 43.5350 -77.9603 102° East 446 513 37,000  Level Cleveland Center
10:39PM 43.5061 -77.7956 104° East 446 513 37,000  Level Cleveland Center
10:40PM 43.4769 -77.6253 103° East 446 513 37,000  Level Cleveland Center
10:41PM 43.4478 -77.4606 104° East 446 513 37,000  Level Cleveland Center
10:43PM 43.3950 -77.1614 104° East 441 507 37,000  Level Boston Center
10:44PM 43.3667 -77.0167 105° East 450 518 37,000 -540 Level Toronto Center
10:45PM 43.3333 -76.8667 107° East 450 518 36,200 -900 Descending Toronto Center
10:46PM 43.3167 -76.6833 97° East 440 506 35,300 -600 Descending Toronto Center
10:47PM 43.2667 -76.5167 112° Southeast 450 518 35,000 -180 Descending Toronto Center
10:48PM 43.2500 -76.3667 99° East 450 518 35,000 -120 Level Toronto Center
10:48PM 43.2525 -76.3544 74° East 436 502 34,900 -120 Descending Boston Center
10:49PM 43.2206 -76.1872 105° East 441 507 34,900  Level Boston Center
10:50PM 43.1900 -76.0286 105° East 441 507 34,900  Level Boston Center
10:51PM 43.1597 -75.8675 104° East 441 507 34,900  Level Boston Center
10:52PM 43.1289 -75.7033 104° East 441 507 35,000  Climbing Boston Center
10:53PM 43.0961 -75.5397 105° East 441 507 35,000  Level Boston Center
10:54PM 43.0628 -75.3758 106° East 441 507 35,000 -60 Level Boston Center
10:55PM 43.0389 -75.2469 104° East 441 507 34,900  Descending Boston Center
10:56PM 43.0000 -75.0492 105° East 441 507 35,000  Climbing Boston Center
10:57PM 42.9681 -74.8889 105° East 441 507 35,000 -60 Level Boston Center
10:58PM 42.9358 -74.7289 105° East 441 507 34,900 -60 Descending Boston Center
10:59PM 42.9036 -74.5717 106° East 441 507 34,900  Level Boston Center
11:00PM 42.8711 -74.4119 105° East 436 502 35,000  Climbing Boston Center
11:01PM 42.8381 -74.2578 106° East 436 502 35,000  Level Boston Center
11:02PM 42.8072 -74.0956 104° East 436 502 35,000  Level Boston Center
11:03PM 42.7719 -73.9419 107° East 436 502 35,000  Level Boston Center
11:04PM 42.7486 -73.8142 104° East 431 496 35,000  Level Boston Center
11:05PM 42.7278 -73.6103 98° East 422 486 35,000  Level Boston Center
11:06PM 42.7106 -73.4489 98° East 422 486 35,000  Level Boston Center
11:07PM 42.6931 -73.2903 98° East 427 491 35,000 -240 Level Boston Center
11:08PM 42.6797 -73.1319 96° East 427 491 34,600 -720 Descending Boston Center
11:09PM 42.6575 -72.9653 100° East 427 491 33,600 -1,020 Descending Boston Center
11:10PM 42.6417 -72.8128 98° East 432 497 32,600 -960 Descending Boston Center
11:11PM 42.6211 -72.6517 100° East 427 491 31,500 -2,400 Descending Boston Center
11:12PM 42.5964 -72.4569 100° East 436 502 27,400 -3,660 Descending Boston Center
11:13PM 42.5775 -72.2964 99° East 446 513 24,200 -3,240 Descending Boston Center
11:14PM 42.5583 -72.1442 100° East 425 489 21,000 -2,940 Descending Boston Center
11:15PM 42.5414 -72.0061 99° East 414 476 18,400 -2,640 Descending Boston Center
11:17PM 42.5258 -71.8344 97° East 397 457 15,200 -2,880 Descending Boston Center
11:18PM 42.5103 -71.6769 98° East 385 443 12,100 -3,120 Descending Boston Center
11:18PM 42.5000 -71.6000 100° East 368 423 10,600 -1,380 Descending KA90
11:19PM 42.5000 -71.4833 90° East 313 360 10,100 -660 Descending KA90
11:20PM 42.4833 -71.3667 101° East 274 315 9,300 -720 Descending KA90
11:21PM 42.4667 -71.2500 101° East 264 304 8,500 -720 Descending KA90
11:22PM 42.4667 -71.1500 90° East 265 305 7,900 -1,080 Descending KA90
11:23PM 42.4500 -71.0833 109° East 264 304 6,700 -1,080 Descending KA90
11:24PM 42.4167 -70.9833 114° Southeast 260 299 6,000 -360 Descending KA90
11:25PM 42.3333 -70.9667 172° South 260 299 6,000 -480 Level KA90
11:26PM 42.2833 -70.9833 194° South 240 276 5,100 -1,200 Descending KA90
11:27PM 42.2167 -71.0000 190° South 230 265 3,800 -1,260 Descending KA90
11:28PM 42.2167 -71.0667 270° West 187 215 2,600 -1,200 Descending KA90